sensor_id;sensor_type;location;lat;lon;timestamp;P1;durP1;ratioP1;P2;durP2;ratioP2
239;SDS011;104;53.590;10.004;2023-12-07T05:52:17;39.63;;;19.07;;
239;SDS011;104;53.590;10.004;2023-12-07T05:54:44;39.63;;;18.73;;
239;SDS011;104;53.590;10.004;2023-12-07T05:57:13;39.00;;;18.83;;
239;SDS011;104;53.590;10.004;2023-12-07T05:59:40;37.60;;;18.97;;
239;SDS011;104;53.590;10.004;2023-12-07T06:02:08;38.73;;;19.93;;
239;SDS011;104;53.590;10.004;2023-12-07T06:04:35;39.07;;;20.67;;
239;SDS011;104;53.590;10.004;2023-12-07T06:07:03;43.47;;;21.83;;
239;SDS011;104;53.590;10.004;2023-12-07T06:09:35;38.87;;;19.77;;
239;SDS011;104;53.590;10.004;2023-12-07T06:12:08;44.23;;;19.90;;
239;SDS011;104;53.590;10.004;2023-12-07T06:14:35;38.10;;;20.27;;
239;SDS011;104;53.590;10.004;2023-12-07T06:17:05;41.60;;;21.93;;
239;SDS011;104;53.590;10.004;2023-12-07T06:19:35;40.57;;;20.60;;
239;SDS011;104;53.590;10.004;2023-12-07T08:16:11;47.37;;;23.60;;
239;SDS011;104;53.590;10.004;2023-12-07T08:18:41;47.07;;;23.83;;
239;SDS011;104;53.590;10.004;2023-12-07T08:21:08;42.50;;;22.67;;
239;SDS011;104;53.590;10.004;2023-12-07T08:23:40;49.67;;;22.43;;
239;SDS011;104;53.590;10.004;2023-12-07T08:26:08;44.77;;;23.57;;
239;SDS011;104;53.590;10.004;2023-12-07T08:28:36;60.87;;;24.47;;
239;SDS011;104;53.590;10.004;2023-12-07T08:31:03;48.10;;;25.07;;
239;SDS011;104;53.590;10.004;2023-12-07T08:33:40;49.40;;;24.80;;
239;SDS011;104;53.590;10.004;2023-12-07T08:36:08;51.47;;;25.47;;
239;SDS011;104;53.590;10.004;2023-12-07T08:38:36;55.27;;;24.37;;
239;SDS011;104;53.590;10.004;2023-12-07T08:41:03;51.77;;;23.80;;
239;SDS011;104;53.590;10.004;2023-12-07T08:43:31;56.27;;;26.50;;
239;SDS011;104;53.590;10.004;2023-12-07T08:45:58;63.23;;;27.23;;
239;SDS011;104;53.590;10.004;2023-12-07T08:48:26;52.73;;;23.83;;
239;SDS011;104;53.590;10.004;2023-12-07T08:50:54;57.20;;;23.37;;
239;SDS011;104;53.590;10.004;2023-12-07T08:53:22;42.60;;;21.27;;
239;SDS011;104;53.590;10.004;2023-12-07T08:55:49;44.27;;;21.77;;
239;SDS011;104;53.590;10.004;2023-12-07T08:58:17;57.30;;;23.40;;
239;SDS011;104;53.590;10.004;2023-12-07T09:00:44;56.60;;;23.37;;
239;SDS011;104;53.590;10.004;2023-12-07T09:03:11;51.10;;;24.60;;
239;SDS011;104;53.590;10.004;2023-12-07T09:05:38;41.10;;;22.00;;
239;SDS011;104;53.590;10.004;2023-12-07T09:08:07;45.37;;;22.23;;
239;SDS011;104;53.590;10.004;2023-12-07T09:10:35;46.43;;;23.00;;
239;SDS011;104;53.590;10.004;2023-12-07T09:13:05;58.77;;;27.57;;
239;SDS011;104;53.590;10.004;2023-12-07T09:15:32;61.30;;;26.80;;
239;SDS011;104;53.590;10.004;2023-12-07T09:18:02;57.93;;;26.57;;
239;SDS011;104;53.590;10.004;2023-12-07T09:20:29;54.20;;;24.53;;
239;SDS011;104;53.590;10.004;2023-12-07T09:22:56;53.70;;;25.93;;
239;SDS011;104;53.590;10.004;2023-12-07T09:25:25;48.87;;;24.50;;
239;SDS011;104;53.590;10.004;2023-12-07T09:27:53;49.67;;;23.83;;
239;SDS011;104;53.590;10.004;2023-12-07T09:30:21;50.10;;;24.57;;
239;SDS011;104;53.590;10.004;2023-12-07T09:32:48;46.73;;;24.03;;
239;SDS011;104;53.590;10.004;2023-12-07T09:35:15;45.73;;;23.50;;
239;SDS011;104;53.590;10.004;2023-12-07T09:37:47;53.27;;;23.50;;
239;SDS011;104;53.590;10.004;2023-12-07T09:40:15;46.00;;;23.80;;
239;SDS011;104;53.590;10.004;2023-12-07T09:42:46;55.37;;;25.13;;
239;SDS011;104;53.590;10.004;2023-12-07T09:45:14;56.30;;;26.70;;
239;SDS011;104;53.590;10.004;2023-12-07T09:47:43;56.23;;;28.00;;
239;SDS011;104;53.590;10.004;2023-12-07T09:50:15;61.53;;;28.30;;
239;SDS011;104;53.590;10.004;2023-12-07T09:52:43;51.73;;;26.10;;
239;SDS011;104;53.590;10.004;2023-12-07T09:55:10;57.10;;;26.30;;
239;SDS011;104;53.590;10.004;2023-12-07T09:57:38;58.90;;;26.13;;
239;SDS011;104;53.590;10.004;2023-12-07T10:00:12;55.27;;;25.73;;
239;SDS011;104;53.590;10.004;2023-12-07T10:02:40;50.80;;;26.33;;
239;SDS011;104;53.590;10.004;2023-12-07T10:05:08;51.37;;;25.97;;
239;SDS011;104;53.590;10.004;2023-12-07T10:07:36;57.30;;;27.07;;
239;SDS011;104;53.590;10.004;2023-12-07T10:10:04;50.50;;;25.57;;
239;SDS011;104;53.590;10.004;2023-12-07T10:12:32;49.80;;;25.87;;
239;SDS011;104;53.590;10.004;2023-12-07T10:15:00;50.03;;;25.83;;
239;SDS011;104;53.590;10.004;2023-12-07T11:43:42;56.23;;;28.90;;
239;SDS011;104;53.590;10.004;2023-12-07T11:46:11;56.00;;;29.50;;
239;SDS011;104;53.590;10.004;2023-12-07T11:48:45;61.30;;;30.30;;
239;SDS011;104;53.590;10.004;2023-12-07T11:51:13;59.73;;;30.23;;
239;SDS011;104;53.590;10.004;2023-12-07T11:53:41;56.80;;;28.57;;
239;SDS011;104;53.590;10.004;2023-12-07T11:56:08;58.60;;;29.60;;
239;SDS011;104;53.590;10.004;2023-12-07T11:58:36;60.47;;;29.33;;
239;SDS011;104;53.590;10.004;2023-12-07T12:01:05;65.17;;;30.83;;
239;SDS011;104;53.590;10.004;2023-12-07T12:03:33;62.47;;;31.60;;
239;SDS011;104;53.590;10.004;2023-12-07T12:06:02;64.90;;;29.17;;
239;SDS011;104;53.590;10.004;2023-12-07T12:08:30;72.53;;;32.27;;
239;SDS011;104;53.590;10.004;2023-12-07T12:10:57;69.13;;;34.13;;
239;SDS011;104;53.590;10.004;2023-12-07T12:13:28;69.47;;;32.13;;
239;SDS011;104;53.590;10.004;2023-12-07T12:15:55;64.40;;;31.20;;
239;SDS011;104;53.590;10.004;2023-12-07T12:18:24;65.83;;;31.63;;
239;SDS011;104;53.590;10.004;2023-12-07T12:20:54;66.50;;;32.30;;
239;SDS011;104;53.590;10.004;2023-12-07T12:23:23;62.40;;;32.20;;
239;SDS011;104;53.590;10.004;2023-12-07T12:25:51;69.20;;;33.27;;
239;SDS011;104;53.590;10.004;2023-12-07T12:28:18;65.40;;;31.33;;
239;SDS011;104;53.590;10.004;2023-12-07T12:30:48;63.80;;;32.83;;
239;SDS011;104;53.590;10.004;2023-12-07T12:33:17;69.83;;;31.20;;
239;SDS011;104;53.590;10.004;2023-12-07T12:35:46;65.87;;;32.30;;
239;SDS011;104;53.590;10.004;2023-12-07T12:38:13;79.03;;;32.23;;
239;SDS011;104;53.590;10.004;2023-12-07T12:40:40;60.20;;;30.10;;
239;SDS011;104;53.590;10.004;2023-12-07T12:43:08;62.57;;;31.23;;
239;SDS011;104;53.590;10.004;2023-12-07T12:45:36;61.97;;;32.60;;
239;SDS011;104;53.590;10.004;2023-12-07T12:48:03;58.90;;;31.17;;
239;SDS011;104;53.590;10.004;2023-12-07T12:50:33;60.50;;;30.60;;
239;SDS011;104;53.590;10.004;2023-12-07T12:53:03;64.40;;;30.37;;
239;SDS011;104;53.590;10.004;2023-12-07T12:55:31;65.07;;;31.30;;
239;SDS011;104;53.590;10.004;2023-12-07T12:57:59;62.87;;;29.20;;
239;SDS011;104;53.590;10.004;2023-12-07T13:00:26;67.53;;;31.90;;
239;SDS011;104;53.590;10.004;2023-12-07T13:02:53;59.17;;;30.20;;
239;SDS011;104;53.590;10.004;2023-12-07T13:05:21;64.43;;;29.60;;
239;SDS011;104;53.590;10.004;2023-12-07T13:07:49;58.37;;;29.50;;
239;SDS011;104;53.590;10.004;2023-12-07T13:10:17;61.50;;;29.33;;
239;SDS011;104;53.590;10.004;2023-12-07T13:12:45;61.67;;;29.30;;
239;SDS011;104;53.590;10.004;2023-12-07T13:15:15;61.03;;;28.83;;
239;SDS011;104;53.590;10.004;2023-12-07T13:17:42;57.50;;;28.87;;
239;SDS011;104;53.590;10.004;2023-12-07T13:20:10;58.10;;;28.20;;
239;SDS011;104;53.590;10.004;2023-12-07T13:22:38;60.40;;;29.00;;
239;SDS011;104;53.590;10.004;2023-12-07T13:25:08;61.47;;;30.53;;
239;SDS011;104;53.590;10.004;2023-12-07T13:27:38;59.97;;;30.20;;
239;SDS011;104;53.590;10.004;2023-12-07T13:30:06;52.37;;;27.77;;
239;SDS011;104;53.590;10.004;2023-12-07T13:32:34;51.67;;;26.90;;
239;SDS011;104;53.590;10.004;2023-12-07T13:35:03;56.20;;;29.67;;
239;SDS011;104;53.590;10.004;2023-12-07T13:37:30;55.77;;;26.60;;
239;SDS011;104;53.590;10.004;2023-12-07T13:39:58;49.90;;;26.33;;
239;SDS011;104;53.590;10.004;2023-12-07T13:42:30;47.90;;;26.53;;
239;SDS011;104;53.590;10.004;2023-12-07T13:44:59;54.30;;;26.70;;
239;SDS011;104;53.590;10.004;2023-12-07T13:47:26;51.03;;;26.20;;
239;SDS011;104;53.590;10.004;2023-12-07T13:49:56;49.90;;;26.00;;
239;SDS011;104;53.590;10.004;2023-12-07T13:52:24;50.00;;;26.10;;
239;SDS011;104;53.590;10.004;2023-12-07T13:54:51;56.67;;;26.53;;
239;SDS011;104;53.590;10.004;2023-12-07T13:57:19;50.50;;;26.40;;
239;SDS011;104;53.590;10.004;2023-12-07T13:59:46;54.90;;;26.73;;
239;SDS011;104;53.590;10.004;2023-12-07T14:02:17;53.30;;;26.37;;
239;SDS011;104;53.590;10.004;2023-12-07T14:04:45;58.53;;;28.50;;
239;SDS011;104;53.590;10.004;2023-12-07T14:07:15;55.23;;;26.10;;
239;SDS011;104;53.590;10.004;2023-12-07T14:09:42;62.00;;;28.00;;
239;SDS011;104;53.590;10.004;2023-12-07T14:12:11;59.90;;;29.53;;
239;SDS011;104;53.590;10.004;2023-12-07T14:14:39;56.60;;;28.67;;
239;SDS011;104;53.590;10.004;2023-12-07T14:17:07;74.93;;;34.40;;
239;SDS011;104;53.590;10.004;2023-12-07T14:19:37;79.57;;;34.27;;
239;SDS011;104;53.590;10.004;2023-12-07T14:22:04;58.87;;;29.37;;
239;SDS011;104;53.590;10.004;2023-12-07T14:24:34;65.30;;;30.43;;
239;SDS011;104;53.590;10.004;2023-12-07T14:27:03;56.10;;;27.17;;
239;SDS011;104;53.590;10.004;2023-12-07T14:29:30;55.70;;;28.10;;
239;SDS011;104;53.590;10.004;2023-12-07T14:31:58;60.93;;;28.97;;
239;SDS011;104;53.590;10.004;2023-12-07T14:34:26;65.90;;;27.43;;
239;SDS011;104;53.590;10.004;2023-12-07T14:36:57;60.13;;;27.20;;
239;SDS011;104;53.590;10.004;2023-12-07T14:39:24;63.07;;;28.20;;
239;SDS011;104;53.590;10.004;2023-12-07T14:41:52;55.00;;;26.97;;
239;SDS011;104;53.590;10.004;2023-12-07T14:44:21;58.70;;;27.90;;
239;SDS011;104;53.590;10.004;2023-12-07T14:46:48;82.50;;;36.60;;
239;SDS011;104;53.590;10.004;2023-12-07T14:49:16;113.80;;;44.13;;
239;SDS011;104;53.590;10.004;2023-12-07T14:51:46;111.30;;;45.60;;
239;SDS011;104;53.590;10.004;2023-12-07T14:54:14;85.67;;;37.50;;
239;SDS011;104;53.590;10.004;2023-12-07T14:56:42;82.77;;;35.23;;
239;SDS011;104;53.590;10.004;2023-12-07T14:59:11;71.77;;;33.90;;
239;SDS011;104;53.590;10.004;2023-12-07T15:01:38;67.47;;;30.70;;
239;SDS011;104;53.590;10.004;2023-12-07T15:04:06;76.73;;;33.13;;
239;SDS011;104;53.590;10.004;2023-12-07T15:06:34;71.50;;;32.13;;
239;SDS011;104;53.590;10.004;2023-12-07T15:09:01;66.30;;;30.93;;
239;SDS011;104;53.590;10.004;2023-12-07T15:11:32;67.50;;;30.70;;
239;SDS011;104;53.590;10.004;2023-12-07T15:14:00;67.80;;;30.43;;
239;SDS011;104;53.590;10.004;2023-12-07T15:16:28;65.10;;;30.80;;
239;SDS011;104;53.590;10.004;2023-12-07T15:18:56;65.40;;;31.70;;
239;SDS011;104;53.590;10.004;2023-12-07T15:21:24;65.40;;;30.77;;
239;SDS011;104;53.590;10.004;2023-12-07T15:23:54;90.93;;;31.30;;
239;SDS011;104;53.590;10.004;2023-12-07T15:26:22;72.87;;;33.03;;
239;SDS011;104;53.590;10.004;2023-12-07T15:28:51;71.73;;;31.50;;
239;SDS011;104;53.590;10.004;2023-12-07T15:31:33;66.63;;;31.00;;
239;SDS011;104;53.590;10.004;2023-12-07T15:34:00;71.13;;;32.10;;
239;SDS011;104;53.590;10.004;2023-12-07T15:36:28;71.80;;;32.30;;
239;SDS011;104;53.590;10.004;2023-12-07T15:38:58;85.53;;;33.10;;
239;SDS011;104;53.590;10.004;2023-12-07T15:41:25;75.17;;;33.57;;
239;SDS011;104;53.590;10.004;2023-12-07T15:43:55;73.87;;;33.90;;
239;SDS011;104;53.590;10.004;2023-12-07T15:46:23;94.00;;;40.67;;
239;SDS011;104;53.590;10.004;2023-12-07T15:48:50;73.30;;;34.40;;
239;SDS011;104;53.590;10.004;2023-12-07T15:51:19;77.50;;;34.73;;
239;SDS011;104;53.590;10.004;2023-12-07T15:53:46;79.83;;;35.90;;
239;SDS011;104;53.590;10.004;2023-12-07T15:56:14;78.57;;;36.30;;
239;SDS011;104;53.590;10.004;2023-12-07T15:58:43;80.87;;;35.50;;
239;SDS011;104;53.590;10.004;2023-12-07T16:01:12;78.57;;;35.70;;
239;SDS011;104;53.590;10.004;2023-12-07T16:03:41;80.93;;;35.90;;
239;SDS011;104;53.590;10.004;2023-12-07T16:06:09;84.13;;;34.77;;
239;SDS011;104;53.590;10.004;2023-12-07T16:08:38;82.67;;;36.90;;
239;SDS011;104;53.590;10.004;2023-12-07T16:11:07;76.90;;;35.03;;
239;SDS011;104;53.590;10.004;2023-12-07T16:13:36;72.67;;;34.53;;
239;SDS011;104;53.590;10.004;2023-12-07T16:16:04;79.33;;;34.83;;
239;SDS011;104;53.590;10.004;2023-12-07T16:18:33;75.33;;;34.03;;
239;SDS011;104;53.590;10.004;2023-12-07T17:15:24;87.10;;;38.10;;
239;SDS011;104;53.590;10.004;2023-12-07T17:36:24;69.23;;;31.97;;
239;SDS011;104;53.590;10.004;2023-12-07T17:38:51;71.13;;;33.23;;
239;SDS011;104;53.590;10.004;2023-12-07T17:41:19;86.20;;;33.50;;
239;SDS011;104;53.590;10.004;2023-12-07T17:43:46;69.10;;;33.97;;
239;SDS011;104;53.590;10.004;2023-12-07T17:46:16;79.97;;;34.90;;
239;SDS011;104;53.590;10.004;2023-12-07T17:48:43;79.00;;;34.87;;
239;SDS011;104;53.590;10.004;2023-12-07T17:51:25;95.63;;;37.73;;
239;SDS011;104;53.590;10.004;2023-12-07T17:53:54;90.60;;;37.77;;
239;SDS011;104;53.590;10.004;2023-12-07T17:56:25;85.83;;;35.27;;
239;SDS011;104;53.590;10.004;2023-12-07T17:59:03;113.90;;;41.50;;
239;SDS011;104;53.590;10.004;2023-12-07T18:01:30;104.17;;;42.10;;
239;SDS011;104;53.590;10.004;2023-12-07T18:04:01;124.27;;;43.80;;
239;SDS011;104;53.590;10.004;2023-12-07T18:35:29;102.93;;;39.83;;
239;SDS011;104;53.590;10.004;2023-12-07T18:37:56;96.10;;;36.40;;
239;SDS011;104;53.590;10.004;2023-12-07T18:40:25;80.77;;;33.80;;
239;SDS011;104;53.590;10.004;2023-12-07T18:42:53;80.13;;;34.67;;
239;SDS011;104;53.590;10.004;2023-12-07T18:45:20;83.57;;;33.90;;
239;SDS011;104;53.590;10.004;2023-12-07T18:47:48;79.23;;;32.23;;
239;SDS011;104;53.590;10.004;2023-12-07T18:52:52;78.47;;;31.97;;
239;SDS011;104;53.590;10.004;2023-12-07T18:55:19;78.23;;;32.63;;
239;SDS011;104;53.590;10.004;2023-12-07T18:57:47;82.33;;;35.37;;
239;SDS011;104;53.590;10.004;2023-12-07T19:00:14;78.50;;;31.80;;
239;SDS011;104;53.590;10.004;2023-12-07T19:02:42;92.50;;;36.10;;
239;SDS011;104;53.590;10.004;2023-12-07T19:05:09;84.37;;;34.40;;
239;SDS011;104;53.590;10.004;2023-12-07T19:07:37;72.50;;;34.07;;
239;SDS011;104;53.590;10.004;2023-12-07T19:10:07;75.83;;;31.40;;
239;SDS011;104;53.590;10.004;2023-12-07T19:12:34;73.50;;;32.67;;
239;SDS011;104;53.590;10.004;2023-12-07T19:15:01;70.57;;;31.70;;
239;SDS011;104;53.590;10.004;2023-12-07T19:17:29;71.10;;;31.40;;
239;SDS011;104;53.590;10.004;2023-12-07T19:19:56;75.47;;;32.97;;
239;SDS011;104;53.590;10.004;2023-12-07T19:22:23;75.73;;;31.67;;
239;SDS011;104;53.590;10.004;2023-12-07T19:24:51;83.73;;;33.03;;
239;SDS011;104;53.590;10.004;2023-12-07T19:27:19;71.70;;;31.50;;
239;SDS011;104;53.590;10.004;2023-12-07T19:29:47;81.70;;;32.60;;
239;SDS011;104;53.590;10.004;2023-12-07T19:32:14;76.30;;;31.20;;
239;SDS011;104;53.590;10.004;2023-12-07T19:34:41;86.00;;;32.53;;
239;SDS011;104;53.590;10.004;2023-12-07T19:37:08;88.90;;;34.37;;
239;SDS011;104;53.590;10.004;2023-12-07T19:39:36;87.97;;;35.23;;
239;SDS011;104;53.590;10.004;2023-12-07T19:42:03;84.23;;;33.30;;
239;SDS011;104;53.590;10.004;2023-12-07T19:44:32;92.37;;;33.30;;
239;SDS011;104;53.590;10.004;2023-12-07T19:46:59;70.17;;;31.43;;
239;SDS011;104;53.590;10.004;2023-12-07T19:49:27;82.87;;;33.07;;
239;SDS011;104;53.590;10.004;2023-12-07T19:51:54;78.73;;;32.07;;
239;SDS011;104;53.590;10.004;2023-12-07T19:54:22;80.73;;;32.37;;
239;SDS011;104;53.590;10.004;2023-12-07T19:56:50;79.57;;;32.73;;
239;SDS011;104;53.590;10.004;2023-12-07T19:59:17;87.80;;;35.20;;
239;SDS011;104;53.590;10.004;2023-12-07T20:01:46;98.90;;;35.00;;
239;SDS011;104;53.590;10.004;2023-12-07T20:04:14;87.60;;;33.87;;
239;SDS011;104;53.590;10.004;2023-12-07T20:06:42;85.97;;;31.30;;
239;SDS011;104;53.590;10.004;2023-12-07T20:09:09;80.10;;;28.73;;
239;SDS011;104;53.590;10.004;2023-12-07T20:11:39;87.63;;;32.47;;
239;SDS011;104;53.590;10.004;2023-12-07T20:14:06;72.43;;;27.77;;
239;SDS011;104;53.590;10.004;2023-12-07T20:16:33;68.03;;;26.80;;
239;SDS011;104;53.590;10.004;2023-12-07T20:19:02;78.00;;;26.17;;
239;SDS011;104;53.590;10.004;2023-12-07T20:21:30;68.93;;;25.97;;
239;SDS011;104;53.590;10.004;2023-12-07T20:23:58;82.07;;;25.67;;
239;SDS011;104;53.590;10.004;2023-12-07T20:26:26;66.87;;;24.90;;
239;SDS011;104;53.590;10.004;2023-12-07T20:28:53;131.03;;;25.47;;
239;SDS011;104;53.590;10.004;2023-12-07T20:31:21;72.33;;;27.03;;
239;SDS011;104;53.590;10.004;2023-12-07T20:33:48;69.57;;;27.37;;
239;SDS011;104;53.590;10.004;2023-12-07T20:36:17;88.40;;;25.80;;
239;SDS011;104;53.590;10.004;2023-12-07T20:38:44;131.80;;;24.57;;
239;SDS011;104;53.590;10.004;2023-12-07T20:41:12;61.43;;;23.27;;
239;SDS011;104;53.590;10.004;2023-12-07T20:43:39;57.13;;;23.50;;
239;SDS011;104;53.590;10.004;2023-12-07T20:46:06;75.07;;;21.03;;
239;SDS011;104;53.590;10.004;2023-12-07T20:48:34;60.70;;;24.80;;
239;SDS011;104;53.590;10.004;2023-12-07T20:51:01;67.80;;;21.77;;
239;SDS011;104;53.590;10.004;2023-12-07T20:53:30;123.87;;;23.83;;
239;SDS011;104;53.590;10.004;2023-12-07T20:55:57;61.33;;;22.97;;
239;SDS011;104;53.590;10.004;2023-12-07T20:58:24;55.90;;;20.43;;
239;SDS011;104;53.590;10.004;2023-12-07T21:00:56;66.87;;;21.67;;
239;SDS011;104;53.590;10.004;2023-12-07T21:03:24;106.97;;;21.73;;
239;SDS011;104;53.590;10.004;2023-12-07T21:05:51;63.27;;;21.80;;
239;SDS011;104;53.590;10.004;2023-12-07T21:08:19;61.20;;;21.20;;
239;SDS011;104;53.590;10.004;2023-12-07T21:10:47;65.90;;;23.80;;
239;SDS011;104;53.590;10.004;2023-12-07T21:13:15;51.90;;;22.07;;
239;SDS011;104;53.590;10.004;2023-12-07T21:18:17;53.53;;;22.93;;
239;SDS011;104;53.590;10.004;2023-12-07T21:20:45;60.43;;;23.50;;
239;SDS011;104;53.590;10.004;2023-12-07T21:23:12;53.33;;;23.20;;
239;SDS011;104;53.590;10.004;2023-12-07T21:25:40;52.43;;;22.60;;
239;SDS011;104;53.590;10.004;2023-12-07T21:28:09;57.13;;;23.27;;
239;SDS011;104;53.590;10.004;2023-12-07T21:30:36;69.30;;;25.73;;
239;SDS011;104;53.590;10.004;2023-12-07T21:33:05;61.73;;;24.70;;
239;SDS011;104;53.590;10.004;2023-12-07T21:35:32;55.43;;;22.27;;
239;SDS011;104;53.590;10.004;2023-12-07T21:38:00;52.00;;;22.10;;
239;SDS011;104;53.590;10.004;2023-12-07T21:40:27;57.20;;;23.63;;
239;SDS011;104;53.590;10.004;2023-12-07T21:42:55;62.83;;;23.47;;
239;SDS011;104;53.590;10.004;2023-12-07T21:45:24;147.47;;;39.47;;
239;SDS011;104;53.590;10.004;2023-12-07T21:47:51;243.67;;;54.40;;
239;SDS011;104;53.590;10.004;2023-12-07T21:50:19;61.53;;;24.93;;
239;SDS011;104;53.590;10.004;2023-12-07T21:52:46;57.97;;;22.87;;
239;SDS011;104;53.590;10.004;2023-12-07T21:55:13;54.10;;;22.20;;
239;SDS011;104;53.590;10.004;2023-12-07T21:57:41;62.67;;;25.57;;
239;SDS011;104;53.590;10.004;2023-12-07T22:00:09;63.60;;;24.00;;
239;SDS011;104;53.590;10.004;2023-12-07T22:02:38;58.40;;;22.53;;
239;SDS011;104;53.590;10.004;2023-12-07T22:05:06;61.63;;;24.20;;
239;SDS011;104;53.590;10.004;2023-12-07T22:07:33;60.47;;;24.20;;
239;SDS011;104;53.590;10.004;2023-12-07T22:10:01;57.57;;;24.73;;
239;SDS011;104;53.590;10.004;2023-12-07T22:12:28;59.80;;;25.17;;
239;SDS011;104;53.590;10.004;2023-12-07T22:14:55;54.77;;;24.27;;
239;SDS011;104;53.590;10.004;2023-12-07T22:17:23;61.90;;;23.80;;
239;SDS011;104;53.590;10.004;2023-12-07T22:19:52;55.47;;;23.27;;
239;SDS011;104;53.590;10.004;2023-12-07T22:22:19;55.60;;;23.87;;
239;SDS011;104;53.590;10.004;2023-12-07T22:24:46;58.17;;;23.40;;
239;SDS011;104;53.590;10.004;2023-12-07T22:27:14;61.30;;;23.17;;
239;SDS011;104;53.590;10.004;2023-12-07T22:29:41;55.00;;;23.40;;
239;SDS011;104;53.590;10.004;2023-12-07T22:32:08;55.97;;;23.63;;
239;SDS011;104;53.590;10.004;2023-12-07T22:34:36;64.00;;;23.47;;
239;SDS011;104;53.590;10.004;2023-12-07T22:37:04;60.57;;;23.73;;
239;SDS011;104;53.590;10.004;2023-12-07T22:39:31;56.80;;;23.80;;
239;SDS011;104;53.590;10.004;2023-12-07T22:41:58;54.63;;;22.10;;
239;SDS011;104;53.590;10.004;2023-12-07T22:44:26;53.27;;;21.80;;
239;SDS011;104;53.590;10.004;2023-12-07T22:46:53;51.37;;;22.27;;
239;SDS011;104;53.590;10.004;2023-12-07T22:49:21;55.87;;;22.27;;
239;SDS011;104;53.590;10.004;2023-12-07T22:51:48;62.97;;;25.00;;
239;SDS011;104;53.590;10.004;2023-12-07T22:54:17;69.50;;;26.10;;
239;SDS011;104;53.590;10.004;2023-12-07T22:59:20;55.87;;;23.20;;
239;SDS011;104;53.590;10.004;2023-12-07T23:01:53;55.17;;;22.77;;
239;SDS011;104;53.590;10.004;2023-12-07T23:04:37;53.20;;;21.70;;
239;SDS011;104;53.590;10.004;2023-12-07T23:07:15;54.90;;;22.40;;
239;SDS011;104;53.590;10.004;2023-12-07T23:09:48;56.53;;;22.37;;
239;SDS011;104;53.590;10.004;2023-12-07T23:12:17;67.97;;;24.97;;
239;SDS011;104;53.590;10.004;2023-12-07T23:14:44;62.37;;;23.30;;
239;SDS011;104;53.590;10.004;2023-12-07T23:17:11;55.70;;;23.70;;
239;SDS011;104;53.590;10.004;2023-12-07T23:19:39;84.83;;;22.37;;
239;SDS011;104;53.590;10.004;2023-12-07T23:22:07;56.30;;;22.60;;
239;SDS011;104;53.590;10.004;2023-12-07T23:24:34;58.70;;;23.23;;
239;SDS011;104;53.590;10.004;2023-12-07T23:27:03;59.60;;;23.70;;
239;SDS011;104;53.590;10.004;2023-12-07T23:29:31;55.53;;;23.23;;
239;SDS011;104;53.590;10.004;2023-12-07T23:31:59;52.40;;;22.70;;
239;SDS011;104;53.590;10.004;2023-12-07T23:34:27;54.87;;;21.40;;
239;SDS011;104;53.590;10.004;2023-12-07T23:36:56;53.93;;;21.47;;
239;SDS011;104;53.590;10.004;2023-12-07T23:39:23;51.60;;;21.67;;
239;SDS011;104;53.590;10.004;2023-12-07T23:41:51;53.23;;;22.07;;
239;SDS011;104;53.590;10.004;2023-12-07T23:44:20;55.77;;;22.17;;
239;SDS011;104;53.590;10.004;2023-12-07T23:46:47;55.37;;;22.30;;
239;SDS011;104;53.590;10.004;2023-12-07T23:49:15;52.30;;;21.47;;
239;SDS011;104;53.590;10.004;2023-12-07T23:51:42;54.57;;;22.63;;
239;SDS011;104;53.590;10.004;2023-12-07T23:54:10;53.00;;;22.80;;
239;SDS011;104;53.590;10.004;2023-12-07T23:56:37;48.47;;;21.73;;
239;SDS011;104;53.590;10.004;2023-12-07T23:59:04;55.60;;;22.30;;
